sensor_id;sensor_type;location;lat;lon;timestamp;P1;durP1;ratioP1;P2;durP2;ratioP2
43883;SDS011;29544;52.018;5.810;2022-09-09T00:00:28;2.33;;;0.70;;
43883;SDS011;29544;52.018;5.810;2022-09-09T00:03:05;4.63;;;1.02;;
43883;SDS011;29544;52.018;5.810;2022-09-09T00:08:22;1.63;;;0.60;;
43883;SDS011;29544;52.018;5.810;2022-09-09T00:11:09;2.65;;;0.75;;
43883;SDS011;29544;52.018;5.810;2022-09-09T00:13:49;2.03;;;0.68;;
43883;SDS011;29544;52.018;5.810;2022-09-09T00:16:22;2.10;;;0.73;;
43883;SDS011;29544;52.018;5.810;2022-09-09T00:19:02;2.08;;;0.70;;
43883;SDS011;29544;52.018;5.810;2022-09-09T00:21:33;3.25;;;0.90;;
43883;SDS011;29544;52.018;5.810;2022-09-09T00:26:52;1.88;;;0.70;;
43883;SDS011;29544;52.018;5.810;2022-09-09T00:29:28;2.25;;;0.75;;
43883;SDS011;29544;52.018;5.810;2022-09-09T00:32:11;2.53;;;0.80;;
43883;SDS011;29544;52.018;5.810;2022-09-09T00:34:54;1.30;;;0.52;;
43883;SDS011;29544;52.018;5.810;2022-09-09T00:37:25;1.48;;;0.60;;
43883;SDS011;29544;52.018;5.810;2022-09-09T00:39:51;1.90;;;0.70;;
43883;SDS011;29544;52.018;5.810;2022-09-09T00:42:25;1.38;;;0.50;;
43883;SDS011;29544;52.018;5.810;2022-09-09T00:47:57;1.77;;;0.70;;
43883;SDS011;29544;52.018;5.810;2022-09-09T00:50:30;2.50;;;1.08;;
43883;SDS011;29544;52.018;5.810;2022-09-09T00:55:59;3.45;;;1.00;;
43883;SDS011;29544;52.018;5.810;2022-09-09T00:59:00;1.02;;;0.60;;
43883;SDS011;29544;52.018;5.810;2022-09-09T01:01:39;2.47;;;0.75;;
43883;SDS011;29544;52.018;5.810;2022-09-09T01:04:08;2.50;;;0.77;;
43883;SDS011;29544;52.018;5.810;2022-09-09T01:06:41;3.58;;;0.90;;
43883;SDS011;29544;52.018;5.810;2022-09-09T01:17:04;1.48;;;0.68;;
43883;SDS011;29544;52.018;5.810;2022-09-09T01:27:57;1.42;;;0.60;;
43883;SDS011;29544;52.018;5.810;2022-09-09T01:30:26;1.80;;;0.63;;
43883;SDS011;29544;52.018;5.810;2022-09-09T01:37:55;1.23;;;0.50;;
43883;SDS011;29544;52.018;5.810;2022-09-09T01:40:21;1.25;;;0.52;;
43883;SDS011;29544;52.018;5.810;2022-09-09T01:42:47;2.00;;;0.68;;
43883;SDS011;29544;52.018;5.810;2022-09-09T01:45:13;2.05;;;0.70;;
43883;SDS011;29544;52.018;5.810;2022-09-09T01:47:39;1.13;;;0.35;;
43883;SDS011;29544;52.018;5.810;2022-09-09T01:50:05;1.33;;;0.50;;
43883;SDS011;29544;52.018;5.810;2022-09-09T01:52:33;1.88;;;0.60;;
43883;SDS011;29544;52.018;5.810;2022-09-09T01:55:01;1.13;;;0.68;;
43883;SDS011;29544;52.018;5.810;2022-09-09T01:57:28;2.80;;;0.90;;
43883;SDS011;29544;52.018;5.810;2022-09-09T02:00:04;0.50;;;0.50;;
43883;SDS011;29544;52.018;5.810;2022-09-09T02:05:15;2.63;;;0.82;;
43883;SDS011;29544;52.018;5.810;2022-09-09T02:07:53;0.90;;;0.50;;
43883;SDS011;29544;52.018;5.810;2022-09-09T02:10:44;2.28;;;0.85;;
43883;SDS011;29544;52.018;5.810;2022-09-09T02:13:16;1.30;;;0.50;;
43883;SDS011;29544;52.018;5.810;2022-09-09T02:19:02;1.30;;;0.50;;
43883;SDS011;29544;52.018;5.810;2022-09-09T02:21:34;1.70;;;0.77;;
43883;SDS011;29544;52.018;5.810;2022-09-09T02:24:03;2.85;;;0.60;;
43883;SDS011;29544;52.018;5.810;2022-09-09T02:26:32;1.20;;;0.65;;
43883;SDS011;29544;52.018;5.810;2022-09-09T02:29:02;2.92;;;0.88;;
43883;SDS011;29544;52.018;5.810;2022-09-09T02:31:30;1.30;;;0.50;;
43883;SDS011;29544;52.018;5.810;2022-09-09T02:33:58;0.80;;;0.40;;
43883;SDS011;29544;52.018;5.810;2022-09-09T02:36:27;2.47;;;0.47;;
43883;SDS011;29544;52.018;5.810;2022-09-09T02:38:55;1.10;;;0.40;;
43883;SDS011;29544;52.018;5.810;2022-09-09T02:41:36;0.93;;;0.40;;
43883;SDS011;29544;52.018;5.810;2022-09-09T02:44:05;4.70;;;0.63;;
43883;SDS011;29544;52.018;5.810;2022-09-09T02:49:22;2.83;;;0.82;;
43883;SDS011;29544;52.018;5.810;2022-09-09T02:52:05;1.13;;;0.45;;
43883;SDS011;29544;52.018;5.810;2022-09-09T02:54:44;0.88;;;0.38;;
43883;SDS011;29544;52.018;5.810;2022-09-09T02:57:11;1.10;;;0.52;;
43883;SDS011;29544;52.018;5.810;2022-09-09T02:59:41;2.80;;;0.70;;
43883;SDS011;29544;52.018;5.810;2022-09-09T03:02:08;1.50;;;0.45;;
43883;SDS011;29544;52.018;5.810;2022-09-09T03:04:36;0.70;;;0.50;;
43883;SDS011;29544;52.018;5.810;2022-09-09T03:07:03;2.88;;;0.70;;
43883;SDS011;29544;52.018;5.810;2022-09-09T03:09:29;1.95;;;0.50;;
43883;SDS011;29544;52.018;5.810;2022-09-09T03:14:21;1.63;;;0.73;;
43883;SDS011;29544;52.018;5.810;2022-09-09T03:16:50;1.65;;;0.43;;
43883;SDS011;29544;52.018;5.810;2022-09-09T03:21:43;1.02;;;0.50;;
43883;SDS011;29544;52.018;5.810;2022-09-09T03:26:35;1.55;;;0.40;;
43883;SDS011;29544;52.018;5.810;2022-09-09T03:29:02;1.92;;;0.45;;
43883;SDS011;29544;52.018;5.810;2022-09-09T03:31:31;1.30;;;0.47;;
43883;SDS011;29544;52.018;5.810;2022-09-09T03:33:57;1.95;;;0.52;;
43883;SDS011;29544;52.018;5.810;2022-09-09T03:36:23;0.93;;;0.40;;
43883;SDS011;29544;52.018;5.810;2022-09-09T03:38:51;1.08;;;0.45;;
43883;SDS011;29544;52.018;5.810;2022-09-09T03:41:16;2.00;;;0.53;;
43883;SDS011;29544;52.018;5.810;2022-09-09T03:43:45;1.08;;;0.32;;
43883;SDS011;29544;52.018;5.810;2022-09-09T03:46:11;1.17;;;0.43;;
43883;SDS011;29544;52.018;5.810;2022-09-09T03:48:36;1.80;;;0.60;;
43883;SDS011;29544;52.018;5.810;2022-09-09T03:51:02;1.77;;;0.40;;
43883;SDS011;29544;52.018;5.810;2022-09-09T03:53:28;2.35;;;0.50;;
43883;SDS011;29544;52.018;5.810;2022-09-09T03:55:54;1.10;;;0.57;;
43883;SDS011;29544;52.018;5.810;2022-09-09T03:58:22;1.52;;;0.50;;
43883;SDS011;29544;52.018;5.810;2022-09-09T04:00:55;1.70;;;0.85;;
43883;SDS011;29544;52.018;5.810;2022-09-09T04:03:22;0.88;;;0.40;;
43883;SDS011;29544;52.018;5.810;2022-09-09T04:05:49;1.30;;;0.50;;
43883;SDS011;29544;52.018;5.810;2022-09-09T04:08:16;3.10;;;0.50;;
43883;SDS011;29544;52.018;5.810;2022-09-09T04:10:44;0.65;;;0.43;;
43883;SDS011;29544;52.018;5.810;2022-09-09T04:13:11;1.27;;;0.70;;
43883;SDS011;29544;52.018;5.810;2022-09-09T04:15:39;2.85;;;0.47;;
43883;SDS011;29544;52.018;5.810;2022-09-09T04:18:04;1.77;;;0.60;;
43883;SDS011;29544;52.018;5.810;2022-09-09T04:22:56;2.47;;;0.68;;
43883;SDS011;29544;52.018;5.810;2022-09-09T04:25:21;1.27;;;0.40;;
43883;SDS011;29544;52.018;5.810;2022-09-09T04:27:47;1.13;;;0.40;;
43883;SDS011;29544;52.018;5.810;2022-09-09T04:30:18;1.77;;;0.50;;
43883;SDS011;29544;52.018;5.810;2022-09-09T04:32:43;2.20;;;0.47;;
43883;SDS011;29544;52.018;5.810;2022-09-09T04:35:09;1.17;;;0.40;;
43883;SDS011;29544;52.018;5.810;2022-09-09T04:37:34;1.43;;;0.60;;
43883;SDS011;29544;52.018;5.810;2022-09-09T04:40:00;1.30;;;0.60;;
43883;SDS011;29544;52.018;5.810;2022-09-09T04:42:27;2.80;;;0.63;;
43883;SDS011;29544;52.018;5.810;2022-09-09T04:44:53;9.20;;;0.87;;
43883;SDS011;29544;52.018;5.810;2022-09-09T04:47:19;2.35;;;0.50;;
43883;SDS011;29544;52.018;5.810;2022-09-09T04:49:44;1.07;;;0.30;;
43883;SDS011;29544;52.018;5.810;2022-09-09T04:52:10;0.95;;;0.30;;
43883;SDS011;29544;52.018;5.810;2022-09-09T04:54:36;1.52;;;0.63;;
43883;SDS011;29544;52.018;5.810;2022-09-09T04:57:02;1.90;;;0.67;;
43883;SDS011;29544;52.018;5.810;2022-09-09T04:59:27;1.67;;;0.50;;
43883;SDS011;29544;52.018;5.810;2022-09-09T05:01:53;1.13;;;0.50;;
43883;SDS011;29544;52.018;5.810;2022-09-09T05:04:20;3.42;;;0.60;;
43883;SDS011;29544;52.018;5.810;2022-09-09T05:06:46;1.83;;;0.55;;
43883;SDS011;29544;52.018;5.810;2022-09-09T05:09:11;1.83;;;0.70;;
43883;SDS011;29544;52.018;5.810;2022-09-09T05:11:37;1.93;;;0.47;;
43883;SDS011;29544;52.018;5.810;2022-09-09T05:14:03;2.20;;;0.70;;
43883;SDS011;29544;52.018;5.810;2022-09-09T05:16:29;3.15;;;0.50;;
43883;SDS011;29544;52.018;5.810;2022-09-09T05:18:55;1.63;;;0.50;;
43883;SDS011;29544;52.018;5.810;2022-09-09T05:21:23;2.03;;;0.75;;
43883;SDS011;29544;52.018;5.810;2022-09-09T05:23:51;1.42;;;0.50;;
43883;SDS011;29544;52.018;5.810;2022-09-09T05:26:17;3.77;;;0.87;;
43883;SDS011;29544;52.018;5.810;2022-09-09T05:28:45;4.60;;;0.70;;
43883;SDS011;29544;52.018;5.810;2022-09-09T05:31:12;6.60;;;0.98;;
43883;SDS011;29544;52.018;5.810;2022-09-09T05:33:39;3.30;;;0.70;;
43883;SDS011;29544;52.018;5.810;2022-09-09T05:36:09;4.13;;;0.70;;
43883;SDS011;29544;52.018;5.810;2022-09-09T05:38:40;2.10;;;0.70;;
43883;SDS011;29544;52.018;5.810;2022-09-09T05:41:06;3.65;;;0.80;;
43883;SDS011;29544;52.018;5.810;2022-09-09T05:43:32;3.30;;;0.80;;
43883;SDS011;29544;52.018;5.810;2022-09-09T05:46:10;3.33;;;0.80;;
43883;SDS011;29544;52.018;5.810;2022-09-09T05:48:39;3.15;;;0.73;;
43883;SDS011;29544;52.018;5.810;2022-09-09T05:51:07;2.60;;;0.95;;
43883;SDS011;29544;52.018;5.810;2022-09-09T05:53:35;3.33;;;0.70;;
43883;SDS011;29544;52.018;5.810;2022-09-09T05:56:08;3.08;;;0.75;;
43883;SDS011;29544;52.018;5.810;2022-09-09T05:58:35;3.47;;;0.98;;
43883;SDS011;29544;52.018;5.810;2022-09-09T06:01:02;2.28;;;0.60;;
43883;SDS011;29544;52.018;5.810;2022-09-09T06:03:33;2.15;;;0.88;;
43883;SDS011;29544;52.018;5.810;2022-09-09T06:06:01;2.90;;;0.70;;
43883;SDS011;29544;52.018;5.810;2022-09-09T06:08:30;2.40;;;0.70;;
43883;SDS011;29544;52.018;5.810;2022-09-09T06:11:13;4.95;;;0.98;;
43883;SDS011;29544;52.018;5.810;2022-09-09T06:13:40;3.85;;;0.80;;
43883;SDS011;29544;52.018;5.810;2022-09-09T06:16:10;2.20;;;0.75;;
43883;SDS011;29544;52.018;5.810;2022-09-09T06:18:37;3.00;;;0.70;;
43883;SDS011;29544;52.018;5.810;2022-09-09T06:21:04;3.65;;;1.08;;
43883;SDS011;29544;52.018;5.810;2022-09-09T06:23:32;3.97;;;0.93;;
43883;SDS011;29544;52.018;5.810;2022-09-09T06:26:02;3.80;;;0.80;;
43883;SDS011;29544;52.018;5.810;2022-09-09T06:28:39;2.72;;;0.70;;
43883;SDS011;29544;52.018;5.810;2022-09-09T06:31:09;2.58;;;1.17;;
43883;SDS011;29544;52.018;5.810;2022-09-09T06:33:37;4.88;;;0.93;;
43883;SDS011;29544;52.018;5.810;2022-09-09T06:36:28;1.90;;;0.80;;
43883;SDS011;29544;52.018;5.810;2022-09-09T06:38:53;2.15;;;0.77;;
43883;SDS011;29544;52.018;5.810;2022-09-09T06:41:19;4.03;;;0.75;;
43883;SDS011;29544;52.018;5.810;2022-09-09T06:43:46;4.32;;;0.70;;
43883;SDS011;29544;52.018;5.810;2022-09-09T06:46:13;3.35;;;0.90;;
43883;SDS011;29544;52.018;5.810;2022-09-09T06:48:40;1.77;;;0.73;;
43883;SDS011;29544;52.018;5.810;2022-09-09T06:51:19;3.45;;;0.60;;
43883;SDS011;29544;52.018;5.810;2022-09-09T06:53:52;2.33;;;0.70;;
43883;SDS011;29544;52.018;5.810;2022-09-09T06:58:56;3.13;;;1.17;;
43883;SDS011;29544;52.018;5.810;2022-09-09T07:01:27;2.70;;;1.20;;
43883;SDS011;29544;52.018;5.810;2022-09-09T07:03:56;2.30;;;0.93;;
43883;SDS011;29544;52.018;5.810;2022-09-09T07:06:24;3.95;;;0.80;;
43883;SDS011;29544;52.018;5.810;2022-09-09T07:08:55;2.45;;;1.05;;
43883;SDS011;29544;52.018;5.810;2022-09-09T07:11:23;2.40;;;0.77;;
43883;SDS011;29544;52.018;5.810;2022-09-09T07:13:52;4.50;;;1.30;;
43883;SDS011;29544;52.018;5.810;2022-09-09T07:16:18;1.83;;;0.90;;
43883;SDS011;29544;52.018;5.810;2022-09-09T07:18:45;1.80;;;0.70;;
43883;SDS011;29544;52.018;5.810;2022-09-09T07:21:12;5.30;;;1.10;;
43883;SDS011;29544;52.018;5.810;2022-09-09T07:23:39;2.25;;;0.70;;
43883;SDS011;29544;52.018;5.810;2022-09-09T07:26:12;3.20;;;1.15;;
43883;SDS011;29544;52.018;5.810;2022-09-09T07:28:39;1.55;;;0.82;;
43883;SDS011;29544;52.018;5.810;2022-09-09T07:31:06;4.85;;;0.77;;
43883;SDS011;29544;52.018;5.810;2022-09-09T07:33:38;5.13;;;1.13;;
43883;SDS011;29544;52.018;5.810;2022-09-09T07:36:07;3.25;;;1.20;;
43883;SDS011;29544;52.018;5.810;2022-09-09T07:38:47;4.47;;;1.13;;
43883;SDS011;29544;52.018;5.810;2022-09-09T07:41:17;3.20;;;1.02;;
43883;SDS011;29544;52.018;5.810;2022-09-09T07:43:48;2.38;;;0.82;;
43883;SDS011;29544;52.018;5.810;2022-09-09T07:48:46;2.22;;;0.93;;
43883;SDS011;29544;52.018;5.810;2022-09-09T07:51:17;4.30;;;1.48;;
43883;SDS011;29544;52.018;5.810;2022-09-09T07:53:46;2.65;;;0.80;;
43883;SDS011;29544;52.018;5.810;2022-09-09T07:56:13;4.97;;;1.30;;
43883;SDS011;29544;52.018;5.810;2022-09-09T07:58:42;3.88;;;1.17;;
43883;SDS011;29544;52.018;5.810;2022-09-09T08:01:11;4.57;;;0.98;;
43883;SDS011;29544;52.018;5.810;2022-09-09T08:03:39;3.85;;;1.23;;
43883;SDS011;29544;52.018;5.810;2022-09-09T08:06:06;4.45;;;1.23;;
43883;SDS011;29544;52.018;5.810;2022-09-09T08:08:34;3.42;;;1.15;;
43883;SDS011;29544;52.018;5.810;2022-09-09T08:11:01;5.05;;;1.15;;
43883;SDS011;29544;52.018;5.810;2022-09-09T08:13:32;5.00;;;1.52;;
43883;SDS011;29544;52.018;5.810;2022-09-09T08:16:09;5.80;;;1.40;;
43883;SDS011;29544;52.018;5.810;2022-09-09T08:18:42;7.10;;;1.60;;
43883;SDS011;29544;52.018;5.810;2022-09-09T08:21:11;3.08;;;1.30;;
43883;SDS011;29544;52.018;5.810;2022-09-09T08:23:41;3.45;;;1.10;;
43883;SDS011;29544;52.018;5.810;2022-09-09T08:26:10;3.88;;;1.15;;
43883;SDS011;29544;52.018;5.810;2022-09-09T08:28:38;3.33;;;0.98;;
43883;SDS011;29544;52.018;5.810;2022-09-09T08:31:12;3.72;;;1.25;;
43883;SDS011;29544;52.018;5.810;2022-09-09T08:33:39;3.83;;;1.10;;
43883;SDS011;29544;52.018;5.810;2022-09-09T08:36:06;2.50;;;0.73;;
43883;SDS011;29544;52.018;5.810;2022-09-09T08:38:35;4.65;;;1.45;;
43883;SDS011;29544;52.018;5.810;2022-09-09T08:41:11;5.15;;;1.15;;
43883;SDS011;29544;52.018;5.810;2022-09-09T08:43:45;4.05;;;1.08;;
43883;SDS011;29544;52.018;5.810;2022-09-09T08:49:13;4.85;;;1.38;;
43883;SDS011;29544;52.018;5.810;2022-09-09T08:51:46;5.75;;;1.17;;
43883;SDS011;29544;52.018;5.810;2022-09-09T08:54:14;3.55;;;1.02;;
43883;SDS011;29544;52.018;5.810;2022-09-09T08:56:40;6.10;;;1.30;;
43883;SDS011;29544;52.018;5.810;2022-09-09T08:59:07;13.20;;;2.23;;
43883;SDS011;29544;52.018;5.810;2022-09-09T09:01:49;9.75;;;1.75;;
43883;SDS011;29544;52.018;5.810;2022-09-09T09:04:33;9.50;;;1.50;;
43883;SDS011;29544;52.018;5.810;2022-09-09T09:12:24;6.30;;;1.45;;
43883;SDS011;29544;52.018;5.810;2022-09-09T09:14:53;4.40;;;1.15;;
43883;SDS011;29544;52.018;5.810;2022-09-09T09:17:21;6.38;;;1.45;;
43883;SDS011;29544;52.018;5.810;2022-09-09T09:19:50;5.50;;;1.20;;
43883;SDS011;29544;52.018;5.810;2022-09-09T09:22:20;4.77;;;1.33;;
43883;SDS011;29544;52.018;5.810;2022-09-09T09:25:00;5.97;;;1.20;;
43883;SDS011;29544;52.018;5.810;2022-09-09T09:28:10;5.22;;;1.10;;
43883;SDS011;29544;52.018;5.810;2022-09-09T09:30:45;5.47;;;1.30;;
43883;SDS011;29544;52.018;5.810;2022-09-09T09:33:18;2.90;;;1.15;;
43883;SDS011;29544;52.018;5.810;2022-09-09T09:35:52;2.67;;;0.82;;
43883;SDS011;29544;52.018;5.810;2022-09-09T09:38:22;3.30;;;0.98;;
43883;SDS011;29544;52.018;5.810;2022-09-09T09:40:51;5.00;;;1.02;;
43883;SDS011;29544;52.018;5.810;2022-09-09T09:45:55;3.03;;;1.00;;
43883;SDS011;29544;52.018;5.810;2022-09-09T09:48:25;3.25;;;1.10;;
43883;SDS011;29544;52.018;5.810;2022-09-09T09:50:56;4.88;;;1.65;;
43883;SDS011;29544;52.018;5.810;2022-09-09T09:53:26;5.68;;;1.10;;
43883;SDS011;29544;52.018;5.810;2022-09-09T09:55:54;4.90;;;1.58;;
43883;SDS011;29544;52.018;5.810;2022-09-09T09:58:25;3.35;;;1.00;;
43883;SDS011;29544;52.018;5.810;2022-09-09T10:00:53;3.10;;;1.23;;
43883;SDS011;29544;52.018;5.810;2022-09-09T10:03:26;7.03;;;1.42;;
43883;SDS011;29544;52.018;5.810;2022-09-09T10:08:26;6.65;;;1.08;;
43883;SDS011;29544;52.018;5.810;2022-09-09T10:10:55;5.25;;;1.40;;
43883;SDS011;29544;52.018;5.810;2022-09-09T10:30:05;4.90;;;1.38;;
43883;SDS011;29544;52.018;5.810;2022-09-09T10:32:40;3.65;;;1.10;;
43883;SDS011;29544;52.018;5.810;2022-09-09T10:35:10;6.05;;;1.10;;
43883;SDS011;29544;52.018;5.810;2022-09-09T10:37:50;4.85;;;1.23;;
43883;SDS011;29544;52.018;5.810;2022-09-09T10:40:34;5.07;;;1.40;;
43883;SDS011;29544;52.018;5.810;2022-09-09T10:43:18;4.07;;;1.23;;
43883;SDS011;29544;52.018;5.810;2022-09-09T10:51:31;7.25;;;1.33;;
43883;SDS011;29544;52.018;5.810;2022-09-09T10:56:41;6.28;;;1.42;;
43883;SDS011;29544;52.018;5.810;2022-09-09T10:59:17;4.53;;;1.40;;
43883;SDS011;29544;52.018;5.810;2022-09-09T11:01:48;5.35;;;1.48;;
43883;SDS011;29544;52.018;5.810;2022-09-09T11:04:22;3.90;;;1.10;;
43883;SDS011;29544;52.018;5.810;2022-09-09T11:06:52;4.32;;;1.55;;
43883;SDS011;29544;52.018;5.810;2022-09-09T11:09:27;2.75;;;1.02;;
43883;SDS011;29544;52.018;5.810;2022-09-09T11:11:58;5.30;;;1.60;;
43883;SDS011;29544;52.018;5.810;2022-09-09T11:14:37;3.08;;;1.20;;
43883;SDS011;29544;52.018;5.810;2022-09-09T11:17:13;3.92;;;1.20;;
43883;SDS011;29544;52.018;5.810;2022-09-09T11:19:43;5.53;;;1.27;;
43883;SDS011;29544;52.018;5.810;2022-09-09T11:22:18;5.78;;;1.23;;
43883;SDS011;29544;52.018;5.810;2022-09-09T11:24:58;5.10;;;1.40;;
43883;SDS011;29544;52.018;5.810;2022-09-09T11:27:53;3.55;;;1.23;;
43883;SDS011;29544;52.018;5.810;2022-09-09T11:36:33;5.97;;;1.48;;
43883;SDS011;29544;52.018;5.810;2022-09-09T11:41:55;6.65;;;1.27;;
43883;SDS011;29544;52.018;5.810;2022-09-09T11:44:51;3.08;;;1.20;;
43883;SDS011;29544;52.018;5.810;2022-09-09T11:47:22;4.22;;;1.38;;
43883;SDS011;29544;52.018;5.810;2022-09-09T11:52:40;3.25;;;1.17;;
43883;SDS011;29544;52.018;5.810;2022-09-09T11:55:26;4.38;;;0.93;;
43883;SDS011;29544;52.018;5.810;2022-09-09T11:58:03;2.83;;;0.90;;
43883;SDS011;29544;52.018;5.810;2022-09-09T12:00:41;10.38;;;1.73;;
43883;SDS011;29544;52.018;5.810;2022-09-09T12:06:09;4.07;;;1.45;;
43883;SDS011;29544;52.018;5.810;2022-09-09T12:08:51;4.88;;;1.50;;
43883;SDS011;29544;52.018;5.810;2022-09-09T12:11:27;5.25;;;1.05;;
43883;SDS011;29544;52.018;5.810;2022-09-09T12:13:56;5.43;;;1.30;;
43883;SDS011;29544;52.018;5.810;2022-09-09T12:16:37;3.45;;;1.20;;
43883;SDS011;29544;52.018;5.810;2022-09-09T12:19:05;5.32;;;1.45;;
43883;SDS011;29544;52.018;5.810;2022-09-09T12:21:48;9.35;;;1.77;;
43883;SDS011;29544;52.018;5.810;2022-09-09T12:27:31;5.53;;;1.65;;
43883;SDS011;29544;52.018;5.810;2022-09-09T12:30:07;5.85;;;1.52;;
43883;SDS011;29544;52.018;5.810;2022-09-09T12:32:39;4.57;;;1.20;;
43883;SDS011;29544;52.018;5.810;2022-09-09T12:35:11;3.28;;;1.10;;
43883;SDS011;29544;52.018;5.810;2022-09-09T12:37:47;8.70;;;1.35;;
43883;SDS011;29544;52.018;5.810;2022-09-09T12:40:26;3.33;;;0.85;;
43883;SDS011;29544;52.018;5.810;2022-09-09T12:42:57;6.18;;;1.10;;
43883;SDS011;29544;52.018;5.810;2022-09-09T12:45:27;3.88;;;1.05;;
43883;SDS011;29544;52.018;5.810;2022-09-09T12:50:29;2.88;;;0.90;;
43883;SDS011;29544;52.018;5.810;2022-09-09T12:53:01;6.13;;;1.17;;
43883;SDS011;29544;52.018;5.810;2022-09-09T12:55:32;3.67;;;1.10;;
43883;SDS011;29544;52.018;5.810;2022-09-09T12:58:02;4.47;;;1.30;;
43883;SDS011;29544;52.018;5.810;2022-09-09T13:00:30;5.45;;;1.25;;
43883;SDS011;29544;52.018;5.810;2022-09-09T13:02:57;2.53;;;0.90;;
43883;SDS011;29544;52.018;5.810;2022-09-09T13:05:34;6.47;;;1.48;;
43883;SDS011;29544;52.018;5.810;2022-09-09T13:08:02;5.70;;;1.40;;
43883;SDS011;29544;52.018;5.810;2022-09-09T13:10:43;14.98;;;2.35;;
43883;SDS011;29544;52.018;5.810;2022-09-09T13:13:21;3.03;;;1.00;;
43883;SDS011;29544;52.018;5.810;2022-09-09T13:15:53;9.80;;;1.35;;
43883;SDS011;29544;52.018;5.810;2022-09-09T13:18:22;7.15;;;1.10;;
43883;SDS011;29544;52.018;5.810;2022-09-09T13:20:51;5.30;;;1.10;;
43883;SDS011;29544;52.018;5.810;2022-09-09T13:23:18;4.68;;;0.93;;
43883;SDS011;29544;52.018;5.810;2022-09-09T13:25:59;6.25;;;1.00;;
43883;SDS011;29544;52.018;5.810;2022-09-09T13:28:27;6.25;;;1.20;;
43883;SDS011;29544;52.018;5.810;2022-09-09T13:31:04;3.53;;;1.00;;
43883;SDS011;29544;52.018;5.810;2022-09-09T13:33:32;3.33;;;1.02;;
43883;SDS011;29544;52.018;5.810;2022-09-09T13:36:01;5.00;;;0.73;;
43883;SDS011;29544;52.018;5.810;2022-09-09T13:38:40;3.45;;;0.95;;
43883;SDS011;29544;52.018;5.810;2022-09-09T13:41:20;8.20;;;1.70;;
43883;SDS011;29544;52.018;5.810;2022-09-09T13:43:48;3.58;;;1.05;;
43883;SDS011;29544;52.018;5.810;2022-09-09T13:46:25;3.88;;;1.08;;
43883;SDS011;29544;52.018;5.810;2022-09-09T13:52:02;6.70;;;0.90;;
43883;SDS011;29544;52.018;5.810;2022-09-09T13:54:30;9.85;;;1.30;;
43883;SDS011;29544;52.018;5.810;2022-09-09T13:56:55;4.30;;;1.03;;
43883;SDS011;29544;52.018;5.810;2022-09-09T13:59:21;4.37;;;1.17;;
43883;SDS011;29544;52.018;5.810;2022-09-09T14:01:47;4.30;;;0.97;;
43883;SDS011;29544;52.018;5.810;2022-09-09T14:04:14;7.68;;;1.23;;
43883;SDS011;29544;52.018;5.810;2022-09-09T14:09:07;2.83;;;1.20;;
43883;SDS011;29544;52.018;5.810;2022-09-09T14:11:36;3.83;;;1.00;;
43883;SDS011;29544;52.018;5.810;2022-09-09T14:14:01;2.97;;;1.03;;
43883;SDS011;29544;52.018;5.810;2022-09-09T14:16:27;3.13;;;1.23;;
43883;SDS011;29544;52.018;5.810;2022-09-09T14:18:52;5.13;;;1.07;;
43883;SDS011;29544;52.018;5.810;2022-09-09T14:21:21;6.78;;;1.45;;
43883;SDS011;29544;52.018;5.810;2022-09-09T14:23:47;5.13;;;1.60;;
43883;SDS011;29544;52.018;5.810;2022-09-09T14:26:13;4.90;;;1.55;;
43883;SDS011;29544;52.018;5.810;2022-09-09T14:28:39;3.63;;;1.48;;
43883;SDS011;29544;52.018;5.810;2022-09-09T14:31:05;6.68;;;1.92;;
43883;SDS011;29544;52.018;5.810;2022-09-09T14:33:31;6.30;;;1.95;;
43883;SDS011;29544;52.018;5.810;2022-09-09T14:35:57;3.88;;;1.60;;
43883;SDS011;29544;52.018;5.810;2022-09-09T14:38:34;9.27;;;1.58;;
43883;SDS011;29544;52.018;5.810;2022-09-09T14:41:07;3.17;;;1.20;;
43883;SDS011;29544;52.018;5.810;2022-09-09T14:43:37;4.38;;;1.00;;
43883;SDS011;29544;52.018;5.810;2022-09-09T14:46:06;5.20;;;1.10;;
43883;SDS011;29544;52.018;5.810;2022-09-09T14:48:34;5.22;;;1.65;;
43883;SDS011;29544;52.018;5.810;2022-09-09T14:51:14;7.30;;;1.33;;
43883;SDS011;29544;52.018;5.810;2022-09-09T14:53:47;6.00;;;1.50;;
43883;SDS011;29544;52.018;5.810;2022-09-09T14:56:16;4.47;;;1.50;;
43883;SDS011;29544;52.018;5.810;2022-09-09T14:58:43;7.45;;;1.58;;
43883;SDS011;29544;52.018;5.810;2022-09-09T15:01:09;5.43;;;1.20;;
43883;SDS011;29544;52.018;5.810;2022-09-09T15:03:37;5.30;;;1.33;;
43883;SDS011;29544;52.018;5.810;2022-09-09T15:06:05;3.97;;;1.20;;
43883;SDS011;29544;52.018;5.810;2022-09-09T15:08:33;5.45;;;1.20;;
43883;SDS011;29544;52.018;5.810;2022-09-09T15:13:26;4.18;;;1.20;;
43883;SDS011;29544;52.018;5.810;2022-09-09T15:15:52;5.82;;;1.40;;
43883;SDS011;29544;52.018;5.810;2022-09-09T15:18:19;6.80;;;1.48;;
43883;SDS011;29544;52.018;5.810;2022-09-09T15:20:45;7.82;;;1.40;;
43883;SDS011;29544;52.018;5.810;2022-09-09T15:23:11;4.35;;;1.13;;
43883;SDS011;29544;52.018;5.810;2022-09-09T15:25:37;6.82;;;1.30;;
43883;SDS011;29544;52.018;5.810;2022-09-09T15:28:03;5.03;;;1.60;;
43883;SDS011;29544;52.018;5.810;2022-09-09T15:30:28;4.32;;;1.27;;
43883;SDS011;29544;52.018;5.810;2022-09-09T15:32:54;5.93;;;1.60;;
43883;SDS011;29544;52.018;5.810;2022-09-09T15:35:20;9.32;;;1.65;;
43883;SDS011;29544;52.018;5.810;2022-09-09T15:37:45;5.03;;;1.40;;
43883;SDS011;29544;52.018;5.810;2022-09-09T15:40:11;6.63;;;1.40;;
43883;SDS011;29544;52.018;5.810;2022-09-09T15:42:37;5.43;;;1.90;;
43883;SDS011;29544;52.018;5.810;2022-09-09T15:45:03;6.93;;;1.70;;
43883;SDS011;29544;52.018;5.810;2022-09-09T15:47:30;5.63;;;1.50;;
43883;SDS011;29544;52.018;5.810;2022-09-09T15:49:55;9.67;;;1.93;;
43883;SDS011;29544;52.018;5.810;2022-09-09T15:52:21;3.13;;;1.47;;
43883;SDS011;29544;52.018;5.810;2022-09-09T15:54:46;4.63;;;1.70;;
43883;SDS011;29544;52.018;5.810;2022-09-09T15:57:12;5.80;;;1.67;;
43883;SDS011;29544;52.018;5.810;2022-09-09T15:59:38;3.65;;;1.48;;
43883;SDS011;29544;52.018;5.810;2022-09-09T16:04:31;8.38;;;1.98;;
43883;SDS011;29544;52.018;5.810;2022-09-09T16:07:00;4.55;;;1.75;;
43883;SDS011;29544;52.018;5.810;2022-09-09T16:09:28;7.10;;;1.90;;
43883;SDS011;29544;52.018;5.810;2022-09-09T16:11:58;4.32;;;1.45;;
43883;SDS011;29544;52.018;5.810;2022-09-09T16:14:31;9.57;;;1.90;;
43883;SDS011;29544;52.018;5.810;2022-09-09T16:17:00;6.55;;;1.90;;
43883;SDS011;29544;52.018;5.810;2022-09-09T16:19:27;8.95;;;2.00;;
43883;SDS011;29544;52.018;5.810;2022-09-09T16:21:53;5.90;;;1.67;;
43883;SDS011;29544;52.018;5.810;2022-09-09T16:24:19;7.05;;;2.17;;
43883;SDS011;29544;52.018;5.810;2022-09-09T16:26:46;10.48;;;2.40;;
43883;SDS011;29544;52.018;5.810;2022-09-09T16:29:14;8.32;;;2.13;;
43883;SDS011;29544;52.018;5.810;2022-09-09T16:31:40;12.30;;;2.30;;
43883;SDS011;29544;52.018;5.810;2022-09-09T16:34:07;14.10;;;3.00;;
43883;SDS011;29544;52.018;5.810;2022-09-09T16:39:04;13.65;;;4.57;;
43883;SDS011;29544;52.018;5.810;2022-09-09T16:41:31;21.48;;;4.72;;
43883;SDS011;29544;52.018;5.810;2022-09-09T16:43:58;17.48;;;4.53;;
43883;SDS011;29544;52.018;5.810;2022-09-09T16:46:27;19.80;;;4.93;;
43883;SDS011;29544;52.018;5.810;2022-09-09T16:48:53;20.05;;;6.43;;
43883;SDS011;29544;52.018;5.810;2022-09-09T16:51:22;23.10;;;6.15;;
43883;SDS011;29544;52.018;5.810;2022-09-09T16:53:53;25.88;;;6.38;;
43883;SDS011;29544;52.018;5.810;2022-09-09T16:58:54;19.45;;;5.63;;
43883;SDS011;29544;52.018;5.810;2022-09-09T17:01:25;21.67;;;5.57;;
43883;SDS011;29544;52.018;5.810;2022-09-09T17:03:55;22.52;;;5.03;;
43883;SDS011;29544;52.018;5.810;2022-09-09T17:06:22;18.40;;;5.40;;
43883;SDS011;29544;52.018;5.810;2022-09-09T17:08:53;20.98;;;5.63;;
43883;SDS011;29544;52.018;5.810;2022-09-09T17:11:19;16.90;;;4.50;;
43883;SDS011;29544;52.018;5.810;2022-09-09T17:13:45;26.17;;;5.73;;
43883;SDS011;29544;52.018;5.810;2022-09-09T17:16:13;18.85;;;4.75;;